Forestville, Canada
Current Conditions -  °F | °C
As of 4:00 AM on Wednesday 28 Jan 2015 (Local Time) from CYYY Reporting Station
Blowing Snow Blowing Snow  
Wind Chill: -7°   Ceiling: 2500
Heat Index: 12°   Visibility: 10mi
Dew Point:   Wind: 22mph
Humidity: 67%   Direction: 30°NNE
Pressure: 29.98"   Gusts: NA
Location:  48.73°N, 69.07°W
Report Text: CYYY 280900Z 03019KT 10SM DRSN OVC025 M11/M16 A2998 RMK SC8 SLP157
Loading
Personal Weather Stations






























Interactive Weather Map New forecast layout! Learn more

10-Day Weather Forecast

Advertisements
Track Severe Weather on mobile